Grimes, Iowa
Current Conditions -  °F | °C
As of 4:15 PM on Monday 20 Oct 2014 (Local Time) from KIKV Reporting Station
Clear Clear  
Wind Chill: 70°   Ceiling: Unl
Heat Index: 70°   Visibility: 10mi
Dew Point: 41°   Wind: 10mph
Humidity: 35%   Direction: 310°NW
Pressure: 29.99"   Gusts: 17mph
Location:  41.69°N, 93.79°W
Report Text: KIKV 202115Z AUTO 31009G15KT 10SM CLR 21/05 A2999 RMK AO2
Loading
Personal Weather Stations






























Interactive Weather Map
Tropical Storm Tracking
New forecast layout! Learn more

10-Day Weather Forecast

Advertisements
Track Severe Weather on mobile